Time;durP1;ratioP1;P1;durP2;ratioP2;P2;SDS_P1;SDS_P2;PMS_P1;PMS_P2;Temp;Humidity;BMP_temperature;BMP_pressure;BME280_temperature;BME280_humidity;BME280_pressure;Samples;Min_cycle;Max_cycle;Signal;HPM_P1;HPM_P2
2022/08/28 00:00:25;;;;;;;9.95;3.42;;;;;;;16.61;63.19;101701.03;5056193;23;20059;-95
2022/08/28 00:02:55;;;;;;;13.18;3.72;;;;;;;16.39;63.08;101681.84;4999170;28;20102;-95
2022/08/28 00:07:57;;;;;;;8.63;3.25;;;;;;;16.14;63.80;101659.16;4978154;28;20046;-95
2022/08/28 00:10:23;;;;;;;6.05;3.17;;;;;;;16.24;63.83;101699.75;4978142;28;20084;-96
2022/08/28 00:12:51;;;;;;;7.63;3.42;;;;;;;16.25;64.47;101705.97;5011978;23;20070;-94
2022/08/28 00:15:22;;;;;;;8.65;3.17;;;;;;;15.90;64.42;101682.97;4994877;28;20107;-94
2022/08/28 00:20:24;;;;;;;7.53;3.20;;;;;;;16.02;65.05;101710.06;4976270;28;20539;-95
2022/08/28 00:22:50;;;;;;;6.60;3.45;;;;;;;16.03;65.41;101715.34;4979368;29;20035;-94
2022/08/28 00:25:17;;;;;;;10.32;4.00;;;;;;;15.90;65.41;101711.66;4976668;28;20043;-95
2022/08/28 00:27:51;;;;;;;8.73;3.92;;;;;;;15.70;65.57;101680.63;5249692;23;19997;-95
2022/08/28 00:32:49;;;;;;;8.63;3.53;;;;;;;15.83;65.89;101711.13;5202175;23;20063;-95
2022/08/28 00:35:16;;;;;;;9.40;3.58;;;;;;;15.63;66.32;101698.00;4970209;28;20097;-94
2022/08/28 00:37:43;;;;;;;8.60;3.95;;;;;;;15.65;66.70;101717.59;5215923;23;20075;-96
2022/08/28 00:40:14;;;;;;;9.13;4.03;;;;;;;15.36;66.94;101679.00;5033084;23;20016;-92
2022/08/28 00:42:46;;;;;;;8.07;4.22;;;;;;;15.30;66.92;101679.34;4959405;28;20067;-95
2022/08/28 00:45:17;;;;;;;11.63;4.15;;;;;;;15.25;67.57;101674.25;4944894;28;20047;-95
2022/08/28 00:47:42;;;;;;;7.82;3.90;;;;;;;15.26;67.25;101673.31;5114432;23;20126;-93
2022/08/28 00:50:16;;;;;;;8.55;4.10;;;;;;;15.26;67.44;101664.38;5139533;23;20093;-95
2022/08/28 00:52:44;;;;;;;7.88;3.80;;;;;;;15.28;67.55;101665.16;4996072;28;20034;-94
2022/08/28 00:55:15;;;;;;;12.38;4.50;;;;;;;15.29;67.85;101683.84;4994263;28;20062;-94
2022/08/28 00:57:48;;;;;;;9.68;4.32;;;;;;;15.29;67.63;101673.13;4995529;28;20034;-94
2022/08/28 01:00:22;;;;;;;8.57;3.95;;;;;;;15.55;67.70;101713.66;4994788;28;20094;-94
2022/08/28 01:02:48;;;;;;;10.15;4.35;;;;;;;15.28;68.05;101681.25;4998263;28;20021;-94
2022/08/28 01:05:23;;;;;;;8.35;4.35;;;;;;;15.30;68.29;101700.81;4998152;28;20035;-94
2022/08/28 01:07:55;;;;;;;13.30;5.30;;;;;;;15.11;68.88;101684.91;4994119;28;20019;-95
2022/08/28 01:10:22;;;;;;;13.57;5.63;;;;;;;15.14;69.11;101700.84;4994848;28;20038;-94
2022/08/28 01:12:52;;;;;;;9.27;5.13;;;;;;;15.06;69.00;101697.72;4980841;28;20014;-94
2022/08/28 01:15:26;;;;;;;11.05;5.60;;;;;;;14.95;69.30;101690.25;4999693;28;20018;-94
2022/08/28 01:25:38;;;;;;;11.95;5.70;;;;;;;15.00;70.18;101725.72;5152847;23;20073;-95
2022/08/28 01:28:07;;;;;;;12.60;5.50;;;;;;;15.00;70.49;101732.88;4979193;28;20011;-95
2022/08/28 01:30:33;;;;;;;9.90;5.00;;;;;;;14.98;70.52;101732.13;5123006;23;20066;-95
2022/08/28 01:32:59;;;;;;;12.18;5.13;;;;;;;14.93;70.68;101727.03;4979417;28;20035;-94
2022/08/28 01:35:30;;;;;;;11.73;5.20;;;;;;;14.64;71.05;101691.09;4976202;28;20096;-95
2022/08/28 01:38:02;;;;;;;12.68;5.10;;;;;;;14.81;71.03;101728.56;4978826;28;20070;-94
2022/08/28 01:40:38;;;;;;;11.45;4.95;;;;;;;14.59;71.10;101703.84;4979387;28;20028;-95
2022/08/28 01:43:14;;;;;;;10.43;4.95;;;;;;;14.60;70.79;101693.06;5182694;23;20122;-95
2022/08/28 01:45:43;;;;;;;10.57;5.50;;;;;;;14.55;71.54;101695.13;5125507;23;20074;-94
2022/08/28 01:48:12;;;;;;;13.05;5.35;;;;;;;14.53;71.43;101705.06;4984847;28;20035;-94
2022/08/28 01:50:38;;;;;;;11.85;5.47;;;;;;;14.55;71.52;101703.19;4985175;28;20115;-94
2022/08/28 01:53:05;;;;;;;12.93;5.25;;;;;;;14.73;71.97;101737.97;4995331;28;20007;-94
2022/08/28 01:55:34;;;;;;;14.25;5.05;;;;;;;14.50;71.87;101705.22;4998249;28;20015;-95
2022/08/28 01:58:01;;;;;;;9.98;4.68;;;;;;;14.46;72.04;101706.28;4987471;28;20027;-95
2022/08/28 02:00:27;;;;;;;12.05;5.10;;;;;;;14.39;72.46;101691.50;5160618;23;20038;-94
2022/08/28 02:02:55;;;;;;;15.85;5.70;;;;;;;14.44;72.33;101705.53;4978890;28;20035;-95
2022/08/28 02:05:27;;;;;;;10.50;4.90;;;;;;;14.41;72.33;101690.47;4965772;28;20029;-95
2022/08/28 02:07:57;;;;;;;16.38;5.72;;;;;;;14.46;72.02;101698.25;4980734;28;20039;-95
2022/08/28 02:10:24;;;;;;;11.85;5.70;;;;;;;14.45;72.31;101704.56;4978589;28;20047;-95
2022/08/28 02:12:52;;;;;;;11.15;5.68;;;;;;;14.50;72.23;101701.66;4978947;28;20067;-96
2022/08/28 02:15:18;;;;;;;12.98;5.07;;;;;;;14.48;72.50;101709.75;5207038;23;20050;-96
2022/08/28 02:17:44;;;;;;;12.80;5.78;;;;;;;14.56;72.44;101725.47;5064180;23;20074;-96
2022/08/28 02:20:10;;;;;;;13.18;5.38;;;;;;;14.68;72.43;101748.94;4994251;28;20030;-95
2022/08/28 02:22:38;;;;;;;10.57;5.50;;;;;;;14.39;72.52;101713.81;5003076;28;20039;-94
2022/08/28 02:25:05;;;;;;;10.18;4.97;;;;;;;14.55;72.81;101751.41;5010886;28;20031;-94
2022/08/28 02:27:30;;;;;;;11.93;5.55;;;;;;;14.39;73.21;101732.56;5013847;28;20022;-95
2022/08/28 02:29:57;;;;;;;14.20;5.47;;;;;;;14.28;73.26;101721.53;5008177;28;20524;-95
2022/08/28 02:32:26;;;;;;;10.73;5.38;;;;;;;14.46;73.50;101754.50;5009646;28;20015;-95
2022/08/28 02:34:56;;;;;;;13.68;5.53;;;;;;;14.24;73.63;101725.31;5015277;28;20030;-94
2022/08/28 02:37:23;;;;;;;12.43;5.90;;;;;;;14.20;73.57;101721.06;5009907;28;20090;-95
2022/08/28 02:39:50;;;;;;;10.25;5.20;;;;;;;14.33;73.92;101746.25;5010647;28;20035;-95
2022/08/28 02:42:18;;;;;;;13.13;5.57;;;;;;;14.33;73.80;101740.03;5009551;28;20082;-96
2022/08/28 02:44:44;;;;;;;12.48;5.40;;;;;;;14.37;73.95;101761.22;5005273;28;20047;-95
2022/08/28 02:47:09;;;;;;;8.80;4.70;;;;;;;14.38;73.76;101760.28;5012051;28;20034;-94
2022/08/28 02:49:35;;;;;;;15.90;4.95;;;;;;;14.38;74.20;101765.66;4990697;28;20060;-94
2022/08/28 02:52:05;;;;;;;11.20;5.32;;;;;;;14.19;74.24;101728.22;5017104;28;20018;-94
2022/08/28 02:54:31;;;;;;;13.57;5.85;;;;;;;14.16;74.31;101722.16;5019538;28;20010;-94
2022/08/28 02:56:59;;;;;;;11.85;5.35;;;;;;;14.37;74.42;101763.03;5020285;28;20083;-95
2022/08/28 02:59:25;;;;;;;12.95;5.50;;;;;;;14.08;74.63;101716.34;5053656;23;20098;-95
2022/08/28 03:01:50;;;;;;;15.20;5.10;;;;;;;14.01;74.63;101723.84;5124390;23;20054;-94
2022/08/28 03:06:51;;;;;;;12.38;5.45;;;;;;;13.91;75.06;101719.88;5071925;23;20058;-95
2022/08/28 03:09:17;;;;;;;15.05;6.00;;;;;;;13.99;75.31;101733.75;4983224;28;20091;-95
2022/08/28 03:11:45;;;;;;;11.90;5.50;;;;;;;14.10;75.55;101762.66;4984617;28;20075;-95
2022/08/28 03:14:16;;;;;;;12.48;5.68;;;;;;;13.94;75.49;101733.97;4999687;28;20015;-95
2022/08/28 03:16:41;;;;;;;9.98;5.32;;;;;;;13.83;75.68;101728.28;4996463;28;20050;-94
2022/08/28 03:19:07;;;;;;;11.40;5.57;;;;;;;13.96;76.20;101768.69;4996815;28;20039;-94
2022/08/28 03:21:33;;;;;;;11.00;5.30;;;;;;;13.77;76.49;101741.13;4993402;28;20030;-94
2022/08/28 03:23:58;;;;;;;13.00;5.93;;;;;;;13.71;76.71;101742.31;4996285;28;20063;-94
2022/08/28 03:28:59;;;;;;;13.65;5.60;;;;;;;13.54;77.46;101739.56;5387207;23;20063;-94
2022/08/28 03:31:27;;;;;;;13.13;5.28;;;;;;;13.68;77.61;101779.91;5000580;28;20062;-94
2022/08/28 03:33:53;;;;;;;13.55;5.47;;;;;;;13.51;78.06;101763.81;4992839;28;20011;-95
2022/08/28 03:36:23;;;;;;;17.52;5.95;;;;;;;13.57;78.31;101774.19;4998054;28;20027;-93
2022/08/28 03:38:51;;;;;;;11.50;5.15;;;;;;;13.55;78.28;101779.66;5000333;28;20034;-94
2022/08/28 03:41:19;;;;;;;14.20;5.57;;;;;;;13.50;78.65;101783.47;5339840;23;20041;-95
2022/08/28 03:46:24;;;;;;;13.93;6.03;;;;;;;13.29;79.37;101767.50;5488208;23;20067;-94
2022/08/28 03:48:51;;;;;;;10.80;5.55;;;;;;;13.08;79.55;101742.59;4980092;29;20011;-95
2022/08/28 03:51:19;;;;;;;12.05;5.10;;;;;;;13.04;80.00;101753.53;4968657;29;20062;-95
2022/08/28 03:53:46;;;;;;;12.75;5.57;;;;;;;13.12;79.78;101765.59;4970664;29;20035;-94
2022/08/28 03:56:20;;;;;;;11.35;5.18;;;;;;;13.11;80.12;101773.69;4971080;29;20117;-95
2022/08/28 03:58:50;;;;;;;13.07;5.75;;;;;;;13.11;80.79;101784.38;4974126;29;20071;-94
2022/08/28 04:01:19;;;;;;;10.38;5.13;;;;;;;12.90;80.54;101759.50;4979950;23;20063;-95
2022/08/28 04:03:47;;;;;;;15.82;5.95;;;;;;;12.87;80.71;101759.66;4963362;28;20027;-95
2022/08/28 04:06:12;;;;;;;10.40;4.97;;;;;;;12.89;80.91;101763.13;4960673;28;20011;-95
2022/08/28 04:08:38;;;;;;;10.25;5.20;;;;;;;12.93;81.01;101768.25;4978838;28;20043;-95
2022/08/28 04:11:08;;;;;;;12.13;5.57;;;;;;;12.90;81.25;101773.75;5038313;23;20081;-96
2022/08/28 04:13:34;;;;;;;15.23;6.22;;;;;;;12.91;81.70;101793.31;5049104;23;20050;-96
2022/08/28 04:16:09;;;;;;;12.88;5.05;;;;;;;12.62;81.93;101751.88;5030731;23;20058;-94
2022/08/28 04:18:36;;;;;;;11.57;5.85;;;;;;;12.66;81.99;101773.03;4973399;28;20032;-94
2022/08/28 04:21:15;;;;;;;10.63;5.28;;;;;;;12.64;82.03;101771.38;4979060;28;20038;-93
2022/08/28 04:23:42;;;;;;;13.88;5.28;;;;;;;12.78;82.28;101789.47;4986087;28;20025;-95
2022/08/28 04:26:09;;;;;;;13.30;5.00;;;;;;;12.53;82.06;101753.16;4996724;28;20015;-93
2022/08/28 04:28:35;;;;;;;10.18;5.60;;;;;;;12.62;82.32;101770.56;4984785;28;20015;-95
2022/08/28 04:31:01;;;;;;;14.27;6.00;;;;;;;12.60;82.49;101777.81;4980600;28;20024;-94
2022/08/28 04:33:28;;;;;;;14.07;5.70;;;;;;;12.65;82.29;101779.31;4979242;28;20020;-94
2022/08/28 04:35:54;;;;;;;11.90;5.55;;;;;;;12.78;82.57;101813.50;4980561;28;20058;-93
2022/08/28 04:38:22;;;;;;;14.52;5.45;;;;;;;12.73;82.67;101816.38;4961067;29;20027;-94
2022/08/28 04:40:47;;;;;;;14.63;6.03;;;;;;;12.69;82.59;101804.97;4965239;29;20095;-94
2022/08/28 04:43:13;;;;;;;13.75;5.30;;;;;;;12.75;82.73;101801.16;4978074;28;20058;-95
2022/08/28 04:45:43;;;;;;;9.45;5.07;;;;;;;12.75;82.49;101794.94;4987644;28;20065;-94
2022/08/28 04:48:11;;;;;;;12.65;5.25;;;;;;;12.77;82.26;101790.41;4990189;28;20023;-94
2022/08/28 04:50:47;;;;;;;13.75;5.55;;;;;;;12.64;82.40;101780.25;4975759;28;20031;-94
2022/08/28 04:53:15;;;;;;;15.27;5.85;;;;;;;12.62;82.44;101773.25;4983584;28;20110;-94
2022/08/28 04:55:47;;;;;;;13.05;5.63;;;;;;;12.74;82.27;101791.41;4973351;28;20052;-93
2022/08/28 04:58:16;;;;;;;11.63;5.35;;;;;;;12.90;82.50;101807.59;4980471;28;20066;-94
2022/08/28 05:00:44;;;;;;;10.25;5.45;;;;;;;12.68;82.27;101771.19;4959960;28;20371;-94
2022/08/28 05:03:11;;;;;;;9.95;5.38;;;;;;;12.71;82.36;101781.72;4977593;28;20026;-94
2022/08/28 05:05:42;;;;;;;11.23;5.43;;;;;;;12.89;82.19;101813.91;4980147;28;20038;-95
2022/08/28 05:08:07;;;;;;;8.18;5.13;;;;;;;12.94;82.35;101822.56;4988452;28;20054;-95
2022/08/28 05:10:34;;;;;;;9.60;5.70;;;;;;;12.72;82.33;101785.28;4975707;28;20016;-95
2022/08/28 05:13:00;;;;;;;13.65;5.55;;;;;;;12.87;82.29;101797.91;4975658;28;20031;-95
2022/08/28 05:15:26;;;;;;;8.77;5.60;;;;;;;12.81;82.00;101792.88;4977740;28;20436;-95
2022/08/28 05:17:52;;;;;;;11.60;5.90;;;;;;;13.11;81.95;101830.69;4985503;28;20114;-94
2022/08/28 05:20:17;;;;;;;12.27;5.30;;;;;;;12.91;81.48;101786.16;4962012;28;20042;-94
2022/08/28 05:22:43;;;;;;;10.43;5.43;;;;;;;13.10;81.05;101815.59;4987212;28;20025;-95
2022/08/28 05:25:13;;;;;;;14.30;5.90;;;;;;;13.21;80.93;101818.66;4973452;28;20037;-95
2022/08/28 05:27:39;;;;;;;9.50;5.32;;;;;;;13.08;80.94;101800.53;4975223;28;20019;-95
2022/08/28 05:30:06;;;;;;;14.95;5.70;;;;;;;13.19;80.74;101814.28;4981010;28;20030;-94
2022/08/28 05:32:32;;;;;;;9.98;5.25;;;;;;;13.43;80.38;101841.75;4975855;28;20031;-93
2022/08/28 05:34:57;;;;;;;12.23;5.55;;;;;;;13.29;80.17;101814.75;4985283;28;20042;-94
2022/08/28 05:37:26;;;;;;;9.00;4.88;;;;;;;13.50;80.15;101850.31;4992462;28;20059;-94
2022/08/28 05:39:52;;;;;;;15.82;5.38;;;;;;;13.47;79.80;101826.41;4985120;28;20011;-94
2022/08/28 05:42:17;;;;;;;14.02;5.90;;;;;;;13.52;79.33;101827.06;5171377;23;20054;-94
2022/08/28 05:44:43;;;;;;;14.77;5.00;;;;;;;13.60;79.41;101846.28;4989805;28;20095;-93
2022/08/28 05:47:12;;;;;;;10.32;5.30;;;;;;;13.64;79.46;101842.53;4979934;28;20019;-95
2022/08/28 05:49:39;;;;;;;11.77;5.63;;;;;;;13.37;79.32;101804.56;4987418;28;20046;-95
2022/08/28 05:52:05;;;;;;;9.90;5.50;;;;;;;13.52;79.13;101822.56;4977499;28;20480;-95
2022/08/28 05:54:30;;;;;;;10.57;5.72;;;;;;;13.51;79.34;101815.50;4995252;28;20023;-95
2022/08/28 05:56:59;;;;;;;18.23;6.00;;;;;;;13.68;79.10;101857.50;4994035;28;20057;-93
2022/08/28 05:59:24;;;;;;;13.20;5.65;;;;;;;13.46;79.14;101817.53;4992347;28;20050;-94
2022/08/28 06:01:56;;;;;;;9.82;5.97;;;;;;;13.42;79.37;101819.47;4988428;28;20010;-94
2022/08/28 06:04:25;;;;;;;12.07;5.90;;;;;;;13.38;79.55;101817.88;4975255;28;20098;-95
2022/08/28 06:06:51;;;;;;;12.50;6.07;;;;;;;13.58;79.32;101846.34;4971670;28;20038;-94
2022/08/28 06:09:24;;;;;;;12.02;6.00;;;;;;;13.53;79.08;101832.31;4971860;28;20019;-94
2022/08/28 06:11:53;;;;;;;9.55;5.68;;;;;;;13.67;78.90;101850.41;4988889;28;20516;-94
2022/08/28 06:14:19;;;;;;;9.93;5.65;;;;;;;13.76;78.72;101857.13;4987826;28;20095;-94
2022/08/28 06:16:52;;;;;;;12.80;5.32;;;;;;;13.85;78.58;101862.91;4990258;28;20071;-94
2022/08/28 06:19:22;;;;;;;12.00;5.60;;;;;;;13.89;78.70;101860.94;4985906;28;20031;-95
2022/08/28 06:21:51;;;;;;;10.40;5.80;;;;;;;13.84;78.03;101845.13;4995126;28;20007;-94
2022/08/28 06:24:17;;;;;;;12.60;5.60;;;;;;;14.01;78.12;101856.81;4996482;28;20078;-95
2022/08/28 06:26:43;;;;;;;12.30;5.85;;;;;;;13.84;77.80;101826.38;4976854;28;20070;-94
2022/08/28 06:29:18;;;;;;;14.57;5.78;;;;;;;13.88;77.81;101829.78;4995020;28;20031;-94
2022/08/28 06:31:57;;;;;;;9.40;5.57;;;;;;;14.30;78.21;101868.75;4995353;28;20025;-94
2022/08/28 06:34:23;;;;;;;11.23;5.43;;;;;;;14.55;76.92;101865.72;4993595;28;20035;-94
2022/08/28 06:36:49;;;;;;;10.25;5.47;;;;;;;14.62;76.06;101848.38;4996944;28;20051;-94
2022/08/28 06:39:15;;;;;;;10.75;5.35;;;;;;;14.80;75.69;101847.44;4967266;28;20034;-95
2022/08/28 06:41:43;;;;;;;12.77;5.13;;;;;;;14.94;73.84;101847.56;4983462;28;20061;-95
2022/08/28 06:44:11;;;;;;;12.18;5.53;;;;;;;15.25;73.91;101848.56;4987842;28;20035;-93
2022/08/28 06:46:37;;;;;;;12.07;5.57;;;;;;;15.55;72.25;101883.63;4979957;28;20042;-94
2022/08/28 06:49:07;;;;;;;15.27;5.13;;;;;;;15.52;72.16;101848.03;4980506;28;20031;-94
2022/08/28 06:51:33;;;;;;;10.27;5.15;;;;;;;15.78;71.63;101844.78;4964525;28;20031;-94
2022/08/28 06:54:01;;;;;;;9.05;4.68;;;;;;;15.93;70.24;101851.97;4976189;28;20034;-95
2022/08/28 06:56:26;;;;;;;12.90;4.93;;;;;;;16.19;69.56;101881.81;4988687;28;20042;-95
2022/08/28 06:58:52;;;;;;;10.45;5.38;;;;;;;16.37;69.29;101883.41;4990548;28;20020;-95
2022/08/28 07:01:23;;;;;;;10.00;4.78;;;;;;;16.49;67.97;101880.97;4993576;28;20015;-94
2022/08/28 07:03:51;;;;;;;11.82;5.20;;;;;;;16.59;67.28;101869.56;4990791;28;20077;-95
2022/08/28 07:06:17;;;;;;;10.55;5.10;;;;;;;16.89;67.55;101868.72;4991311;28;20011;-96
2022/08/28 07:08:43;;;;;;;12.80;4.60;;;;;;;17.08;66.72;101869.31;4994081;28;20070;-94
2022/08/28 07:11:21;;;;;;;8.10;4.40;;;;;;;17.48;64.57;101882.09;4986735;28;20074;-96
2022/08/28 07:13:47;;;;;;;8.40;3.90;;;;;;;17.65;63.81;101879.19;4989359;28;20054;-94
2022/08/28 07:16:16;;;;;;;14.07;4.30;;;;;;;17.71;63.17;101880.63;4991041;28;20015;-92
2022/08/28 07:18:41;;;;;;;9.25;4.13;;;;;;;17.94;62.49;101881.88;4990417;28;20095;-94
2022/08/28 07:21:06;;;;;;;10.48;4.10;;;;;;;18.10;61.92;101879.88;4979196;28;20039;-94
2022/08/28 07:23:34;;;;;;;8.65;4.03;;;;;;;18.38;61.91;101878.91;4975801;28;20022;-93
2022/08/28 07:26:06;;;;;;;10.27;3.88;;;;;;;18.79;59.47;101876.13;4974739;28;20492;-91
2022/08/28 07:28:32;;;;;;;7.80;3.83;;;;;;;19.03;58.73;101881.66;4970889;28;20058;-90
2022/08/28 07:31:04;;;;;;;10.90;4.20;;;;;;;19.22;58.90;101885.72;4969797;28;20269;-94
2022/08/28 07:33:30;;;;;;;11.77;4.13;;;;;;;19.68;57.50;101885.16;4973450;28;20610;-93
2022/08/28 07:35:56;;;;;;;11.55;4.18;;;;;;;20.08;55.72;101883.09;4976038;28;20041;-92
2022/08/28 07:38:22;;;;;;;9.75;3.83;;;;;;;20.42;54.57;101894.09;4989422;28;20438;-93
2022/08/28 07:40:47;;;;;;;9.57;3.80;;;;;;;20.66;53.46;101896.78;4981723;28;20042;-94
2022/08/28 07:45:59;;;;;;;7.22;2.92;;;;;;;21.00;51.02;101900.44;4982732;28;20097;-93
2022/08/28 07:48:24;;;;;;;9.05;3.45;;;;;;;21.11;51.15;101903.19;4980663;28;20086;-90
2022/08/28 07:50:50;;;;;;;10.57;2.97;;;;;;;21.26;50.23;101907.38;4981902;28;20511;-92
2022/08/28 07:53:15;;;;;;;10.18;3.22;;;;;;;21.45;49.76;101900.53;4973829;28;20031;-94
2022/08/28 07:55:40;;;;;;;10.18;3.60;;;;;;;21.83;49.21;101911.84;4956318;28;20022;-93
2022/08/28 07:58:06;;;;;;;8.20;3.40;;;;;;;22.12;48.14;101914.91;4974273;28;20054;-94
2022/08/28 08:00:31;;;;;;;9.38;4.88;;;;;;;22.37;47.56;101905.56;4972430;28;20065;-95
2022/08/28 08:02:56;;;;;;;11.07;2.95;;;;;;;22.31;46.86;101905.22;4966861;28;20057;-94
2022/08/28 08:05:22;;;;;;;8.30;2.90;;;;;;;22.51;47.75;101907.13;4970763;28;20058;-96
2022/08/28 08:07:47;;;;;;;8.77;2.88;;;;;;;22.99;45.55;101901.25;4972657;28;20050;-93
2022/08/28 08:10:13;;;;;;;6.65;2.80;;;;;;;23.17;45.67;101909.63;4951874;28;20034;-89
2022/08/28 08:12:41;;;;;;;9.60;2.90;;;;;;;22.91;44.45;101908.28;4966780;28;20037;-95
2022/08/28 08:15:08;;;;;;;8.15;2.47;;;;;;;22.98;45.67;101909.50;4972350;28;20082;-90
2022/08/28 08:17:33;;;;;;;5.40;2.33;;;;;;;23.20;44.55;101903.94;4967468;28;20046;-92
2022/08/28 08:19:59;;;;;;;5.68;2.47;;;;;;;23.41;44.25;101914.75;4971048;28;20130;-93
2022/08/28 08:22:25;;;;;;;8.45;2.88;;;;;;;23.33;44.29;101914.59;4972484;28;20042;-93
2022/08/28 08:24:53;;;;;;;6.28;2.38;;;;;;;23.41;43.50;101916.59;4971041;28;20035;-92
2022/08/28 08:27:18;;;;;;;7.10;2.45;;;;;;;22.99;43.63;101912.09;4970759;28;20049;-94
2022/08/28 08:29:44;;;;;;;6.90;2.53;;;;;;;22.52;44.93;101924.25;4974206;28;20034;-95
2022/08/28 08:32:10;;;;;;;6.38;2.33;;;;;;;22.46;44.71;101924.78;4960071;28;20050;-95
2022/08/28 08:34:41;;;;;;;5.88;2.40;;;;;;;21.97;46.29;101931.53;4962171;28;20019;-95
2022/08/28 08:37:07;;;;;;;7.13;2.40;;;;;;;22.15;45.48;101924.63;4978594;28;20034;-93
2022/08/28 08:39:34;;;;;;;6.53;2.17;;;;;;;22.22;45.22;101928.53;4971397;28;20038;-95
2022/08/28 08:42:01;;;;;;;5.82;2.15;;;;;;;23.76;43.01;101916.22;4977236;28;20050;-94
2022/08/28 08:44:31;;;;;;;5.63;2.05;;;;;;;24.77;42.90;101915.94;4979267;28;20039;-92
2022/08/28 08:47:02;;;;;;;7.82;2.17;;;;;;;25.19;39.46;101923.78;4970726;28;21171;-96
2022/08/28 08:49:33;;;;;;;11.10;2.05;;;;;;;25.89;38.61;101915.22;4978438;28;20136;-92
2022/08/28 08:52:15;;;;;;;7.45;2.03;;;;;;;25.83;37.83;101935.75;4977242;28;20106;-95
2022/08/28 08:54:42;;;;;;;6.65;2.28;;;;;;;26.12;37.96;101927.41;4978464;28;20378;-95
2022/08/28 08:57:10;;;;;;;7.35;2.00;;;;;;;26.23;36.01;101934.53;4958054;28;20065;-95
2022/08/28 08:59:39;;;;;;;6.07;1.80;;;;;;;26.56;36.45;101924.84;4970766;28;20078;-95
2022/08/28 09:02:12;;;;;;;4.75;1.65;;;;;;;27.07;36.80;101915.84;4967117;28;20667;-93
2022/08/28 09:04:45;;;;;;;4.43;1.80;;;;;;;27.75;34.16;101917.84;4976849;28;20027;-95
2022/08/28 09:07:19;;;;;;;6.90;1.92;;;;;;;27.82;34.19;101917.19;4975924;28;20030;-94
2022/08/28 09:09:55;;;;;;;6.13;2.10;;;;;;;28.18;34.29;101905.00;4975279;28;20114;-90
2022/08/28 09:12:24;;;;;;;4.90;2.20;;;;;;;29.22;31.79;101907.09;4966808;28;20125;-94
2022/08/28 09:15:11;;;;;;;4.40;1.83;;;;;;;29.72;31.66;101916.03;4950107;28;20492;-90
2022/08/28 09:17:46;;;;;;;6.15;2.10;;;;;;;29.12;30.66;101922.88;4966351;28;20085;-88
2022/08/28 09:20:16;;;;;;;7.90;2.75;;;;;;;28.93;30.57;101917.75;4963932;28;20030;-86
2022/08/28 09:22:43;;;;;;;5.82;2.10;;;;;;;29.09;30.16;101917.72;4962041;28;20492;-87
2022/08/28 09:25:11;;;;;;;5.03;1.75;;;;;;;28.83;29.99;101917.06;4962986;28;20043;-87
2022/08/28 09:27:51;;;;;;;4.82;1.73;;;;;;;29.05;30.94;101910.88;4964440;28;20408;-87
2022/08/28 09:30:28;;;;;;;5.45;1.60;;;;;;;29.57;30.68;101918.69;4950038;28;20026;-85
2022/08/28 09:32:59;;;;;;;4.72;1.65;;;;;;;30.16;28.66;101916.38;4951047;28;20503;-88
2022/08/28 09:35:26;;;;;;;5.28;1.77;;;;;;;30.15;28.60;101919.31;4963803;28;20043;-93
2022/08/28 09:37:53;;;;;;;4.03;1.50;;;;;;;30.50;28.01;101917.84;4968431;28;20054;-91
2022/08/28 09:40:24;;;;;;;4.95;1.67;;;;;;;31.19;27.38;101907.66;4972189;28;20552;-92
2022/08/28 09:43:27;;;;;;;4.75;1.80;;;;;;;32.05;26.30;101916.25;4969272;28;20074;-93
2022/08/28 09:46:01;;;;;;;6.03;1.70;;;;;;;31.18;26.96;101924.31;4970570;28;20198;-92
2022/08/28 09:48:45;;;;;;;3.90;1.73;;;;;;;30.40;27.74;101928.25;4971707;28;20081;-91
2022/08/28 09:51:21;;;;;;;6.82;2.00;;;;;;;29.18;29.10;101932.28;4971689;28;22298;-92
2022/08/28 09:53:49;;;;;;;5.50;1.70;;;;;;;29.07;29.23;101921.69;4954537;28;20054;-88
2022/08/28 09:56:19;;;;;;;5.07;1.42;;;;;;;30.04;28.46;101926.00;4972178;28;20061;-91
2022/08/28 09:58:55;;;;;;;4.30;1.80;;;;;;;30.51;28.00;101931.38;4973332;28;20027;-90
2022/08/28 10:01:54;;;;;;;4.38;1.73;;;;;;;31.02;27.71;101933.59;4949459;28;20110;-91
2022/08/28 10:04:41;;;;;;;3.38;1.83;;;;;;;30.67;27.30;101944.16;4970384;28;20042;-89
2022/08/28 10:07:29;;;;;;;6.20;2.13;;;;;;;29.75;29.09;101930.25;4967577;28;20034;-87
2022/08/28 10:10:16;;;;;;;3.70;1.77;;;;;;;29.68;28.58;101936.63;4936357;29;20039;-88
2022/08/28 10:13:03;;;;;;;4.85;1.60;;;;;;;29.66;27.95;101925.00;4967947;28;20085;-91
2022/08/28 10:15:54;;;;;;;4.13;1.70;;;;;;;31.79;27.62;101929.66;4973481;28;20519;-91
2022/08/28 10:19:03;;;;;;;4.55;1.88;;;;;;;32.80;24.37;101925.09;4971610;28;20036;-88
2022/08/28 10:21:42;;;;;;;4.47;1.90;;;;;;;32.95;25.16;101920.41;4971090;28;20088;-90
2022/08/28 10:24:08;;;;;;;4.75;1.70;;;;;;;33.67;23.01;101928.31;4973253;28;20042;-91
2022/08/28 10:26:48;;;;;;;5.70;1.48;;;;;;;33.82;23.12;101921.78;4972359;28;20031;-91
2022/08/28 10:29:40;;;;;;;3.95;2.10;;;;;;;33.48;23.62;101920.78;4971931;28;20492;-90
2022/08/28 10:32:29;;;;;;;4.03;1.73;;;;;;;33.68;24.37;101920.88;4968927;28;20054;-91
2022/08/28 10:35:13;;;;;;;4.00;1.80;;;;;;;33.85;22.96;101919.47;4971802;28;20155;-89
2022/08/28 10:38:06;;;;;;;4.07;1.50;;;;;;;34.96;22.65;101921.88;4987116;28;20031;-89
2022/08/28 10:40:37;;;;;;;4.55;1.50;;;;;;;33.96;21.49;101918.03;4991814;28;20034;-87
2022/08/28 10:43:13;;;;;;;4.47;1.50;;;;;;;33.93;22.49;101916.53;4990843;28;20034;-88
2022/08/28 10:45:40;;;;;;;2.67;1.70;;;;;;;34.18;21.72;101914.09;4991929;28;20050;-89
2022/08/28 10:48:16;;;;;;;5.30;1.58;;;;;;;34.66;21.32;101927.00;4993449;28;20023;-91
2022/08/28 10:50:49;;;;;;;3.10;1.52;;;;;;;34.24;22.08;101925.38;4992934;28;20014;-92
2022/08/28 10:53:21;;;;;;;4.65;1.50;;;;;;;33.97;22.09;101924.44;4975619;28;20042;-91
2022/08/28 10:55:55;;;;;;;3.05;1.70;;;;;;;33.14;23.07;101919.69;4975143;28;20039;-92
2022/08/28 10:58:24;;;;;;;8.18;2.13;;;;;;;33.77;22.59;101929.84;4975288;28;20023;-91
2022/08/28 11:00:55;;;;;;;6.25;3.67;;;;;;;34.20;21.45;101925.81;4946690;28;20019;-90
2022/08/28 11:03:24;;;;;;;4.38;1.60;;;;;;;34.40;21.13;101923.06;4977731;28;20027;-91
2022/08/28 11:06:00;;;;;;;3.78;1.55;;;;;;;35.37;21.04;101926.31;4978042;28;20033;-89
2022/08/28 11:08:35;;;;;;;2.88;1.50;;;;;;;35.46;21.79;101929.72;4977710;28;20023;-90
2022/08/28 11:11:05;;;;;;;3.75;1.50;;;;;;;34.99;20.45;101927.03;4976267;28;20505;-91
2022/08/28 11:13:50;;;;;;;4.25;1.40;;;;;;;35.49;20.37;101919.06;4961139;29;20050;-92
2022/08/28 11:16:20;;;;;;;3.75;1.50;;;;;;;34.51;20.49;101920.78;4961820;29;20035;-90
2022/08/28 11:19:08;;;;;;;6.05;1.40;;;;;;;34.83;21.23;101930.19;4972589;29;20019;-90
2022/08/28 11:21:50;;;;;;;3.83;1.40;;;;;;;35.33;20.88;101931.44;4986013;28;20061;-89
2022/08/28 11:24:29;;;;;;;2.92;1.33;;;;;;;35.52;20.92;101924.16;4991986;28;20026;-90
2022/08/28 11:27:07;;;;;;;4.97;1.50;;;;;;;35.76;20.16;101916.22;4987729;28;20035;-91
2022/08/28 11:30:00;;;;;;;5.75;1.63;;;;;;;36.68;19.82;101916.78;4962316;28;20042;-91
2022/08/28 11:32:31;;;;;;;2.67;1.30;;;;;;;36.45;18.93;101915.44;4949457;29;20020;-90
2022/08/28 11:35:24;;;;;;;4.07;1.58;;;;;;;35.68;19.99;101928.38;4965548;29;20058;-91
2022/08/28 11:37:53;;;;;;;2.10;1.30;;;;;;;35.97;19.82;101924.25;4955040;29;20027;-92
2022/08/28 11:40:30;;;;;;;2.95;1.50;;;;;;;36.39;18.71;101930.19;4956952;28;20058;-91
2022/08/28 11:43:14;;;;;;;4.60;1.50;;;;;;;35.11;20.21;101932.72;4954591;28;20123;-90
2022/08/28 11:45:42;;;;;;;2.53;1.48;;;;;;;34.65;21.17;101928.03;4954818;29;20063;-89
2022/08/28 11:48:32;;;;;;;4.32;1.33;;;;;;;35.68;20.25;101920.91;4954826;29;20028;-89
2022/08/28 11:51:05;;;;;;;4.07;1.40;;;;;;;36.43;19.19;101925.88;4956957;28;20493;-90
2022/08/28 11:53:36;;;;;;;2.85;1.27;;;;;;;37.25;18.86;101918.41;4955181;29;20035;-91
2022/08/28 11:56:25;;;;;;;3.90;1.67;;;;;;;37.14;18.04;101919.16;4955157;29;20388;-91
2022/08/28 11:59:02;;;;;;;2.97;1.52;;;;;;;37.36;18.07;101914.88;4956005;29;20047;-90
2022/08/28 12:01:34;;;;;;;6.60;1.60;;;;;;;35.06;19.69;101925.06;4967064;28;20097;-89